ADDS METAR Data INFO
IDs: Format: Raw Decoded Include TAF

Data at: 0748 UTC 23 Jul 2018

KSTC 230653Z AUTO 00000KT 8SM CLR 16/16 A3007 RMK AO2 SLP188 T01610156
KSTC 230553Z AUTO 00000KT 10SM CLR 17/16 A3007 RMK AO2 SLP187 T01720161 10250 20172 402610161 50001
KSTC 230453Z AUTO 07003KT 10SM CLR 18/17 A3008 RMK AO2 SLP190 T01780167
KSTC 230353Z 06003KT 10SM CLR 19/17 A3007 RMK AO2 SLP188 T01890172
KSTC 230253Z 00000KT 9SM CLR 19/17 A3007 RMK AO2 SLP187 T01890172 53003
KSTC 230153Z 00000KT 10SM CLR 21/18 A3005 RMK AO2 SLP181 T02110178
KSTC 230053Z 11003KT 10SM CLR 24/18 A3005 RMK AO2 SLP180 T02390178
KSTC 222353Z 05005KT 9SM CLR 25/17 A3006 RMK AO2 SLP182 T02500172 10261 20228 56007
KSTC 222253Z 04004KT 8SM CLR 26/18 A3006 RMK AO2 SLP183 T02560178
KSTC 222153Z 01006KT 8SM CLR 26/17 A3007 RMK AO2 SLP187 T02610172
KSTC 222053Z VRB04KT 7SM CLR 25/17 A3008 RMK AO2 SLP190 T02500167 55003
KSTC 221953Z VRB06KT 10SM FEW025 24/17 A3008 RMK AO2 SLP189 T02440167
KSTC 221853Z VRB04KT 10SM SCT024 23/17 A3009 RMK AO2 SLP192 T02280167
KSTC 221753Z 05004KT 10SM FEW024 23/16 A3009 RMK AO2 SLP193 T02330161 10233 20167 55005
KSTC 221653Z 09007KT 10SM CLR 22/16 A3008 RMK AO2 SLP191 T02220161
KSTC 221553Z 10010G16KT 10SM CLR 21/16 A3009 RMK AO2 SLP194 T02110161
KSTC 221453Z 08009G15KT 10SM SCT013 20/16 A3010 RMK AO2 SLP198 T02000156 57011
KSTC 221353Z 07008KT 10SM SCT011 18/15 A3011 RMK AO2 SLP201 T01830150
KSTC 221334Z 08009KT 10SM SCT011 18/15 A3012 RMK AO2 T01780150
KSTC 221318Z 06005KT 10SM SCT006 BKN011 17/15 A3012 RMK AO2 T01720150
KSTC 221253Z 04005KT 10SM OVC007 17/16 A3013 RMK AO2 SLP207 T01670156
KSTC 221153Z 06007KT 10SM OVC007 17/15 A3014 RMK AO2 SLP209 T01670150 10178 20161 51016
KSTC 221053Z AUTO 07009KT 10SM BKN007 16/15 A3013 RMK AO2 SLP206 T01610150
KSTC 221038Z AUTO 08006KT 10SM SCT008 16/15 A3012 RMK AO2 T01610150
KSTC 220953Z AUTO 10SM CLR 16/15 A3010 RMK AO2 SLP198 T01610150
KSTC 220853Z AUTO 07006KT 10SM CLR 17/16 A3009 RMK AO2 SLP193 T01720156 58008
KSTC 220753Z AUTO 08004KT 10SM CLR 17/16 A3010 RMK AO2 SLP197 T01720161
KSTC 220653Z AUTO 00000KT 10SM CLR 18/17 A3011 RMK AO2 SLP200 T01780167
KSTC 220553Z AUTO 00000KT 10SM CLR 18/17 A3011 RMK AO2 SLP201 T01830172 10256 20178 402610161 53008
KSTC 220453Z AUTO 00000KT 10SM CLR 19/18 A3010 RMK AO2 SLP196 T01890178
KSTC 220353Z 01003KT 10SM CLR 21/18 A3009 RMK AO2 SLP192 T02060178
KSTC 220253Z 36004KT 10SM CLR 21/18 A3009 RMK AO2 SLP193 T02110183 53011
KSTC 220153Z 00000KT 10SM CLR 23/18 A3006 RMK AO2 SLP184 T02280183
KSTC 220053Z 36004KT 10SM CLR 24/18 A3005 RMK AO2 SLP180 T02440183
KSTC 212353Z 34007KT 10SM FEW037 26/18 A3005 RMK AO2 SLP181 T02560178 10261 20233 55002
KSTC 212253Z 35009KT 10SM FEW033 26/18 A3005 RMK AO2 SLP181 T02610178
KSTC 212153Z VRB05KT 10SM CLR 26/18 A3006 RMK AO2 SLP183 T02560178
KSTC 212053Z 02007KT 10SM SCT032 26/17 A3006 RMK AO2 SLP183 T02560172 56005
KSTC 211953Z 34010KT 10SM FEW028 24/18 A3006 RMK AO2 SLP183 T02440178